Main page
METAR-TAF:

METAR-TAF

Airports :

Sukkur Airport

Sukkur, Pakistan

latitude: 27-43-19N, longitude: 068-47-31E, elevation: 60 m

Current weather observation

The report was made 28 minutes ago, at 13:00 UTC
Calm wind
Temperature 22°C
Humidity 65%
Pressure 1012 hPa
Visibility: 4000 m
haze

METAR: OPSK 031300Z 00000KT 4000 HZ NSC 22/15 Q1012 NOSIG

Time: 18:28 (13:28 UTC)

Forecast

The report was made 3 hours and 58 minutes ago, at 09:30 UTC
Forecast valid from 03 at 12 UTC to 04 at 12 UTC
Wind 3 kt from variable directions
Visibility: 4000 m
haze
Becoming
from 03 at 18 UTC to 03 at 20 UTC
Wind 3 kt from variable directions
Visibility: 2000 m
mist
Temporary
from 04 at 01 UTC to 04 at 05 UTC
Wind kt from the North
Visibility: 1000 m
mist
From 04 at 0600 UTC
Wind 8 kt from the Northeast
Visibility: 4000 m
haze

TAF: OPSK 030930Z 0312/0412 VRB03KT 4000 HZ NSC BECMG 0318/0320 VRB03KT 2000 BR NSC TEMPO 0401/0405 00000KT 1000 BR NSC FM040600 05008KT 4000 HZ NSC

Weather observations and forecasts of more than 4000 airports (METAR and TAF reports).

The available stations are represented by yellow and red dots on the map.

Hover mouse over dot to see the name of the station.

Then click to see weather observations and forecasts.

To change the map : click on the green buttons with a black cross to zoom in, on the green button with a dash to zoom out, or on the green arrows for adjacent maps.


METAR-TAF: